• Join FlightAware (Why Join?)
  • Login
  • US Flag 
05:35AM EST


 

Airport Tracker/Info


-or-


 

Live Flight TrackerFlight Track Log ✈ LBQ792 ✈ 08-May-2013 ✈ KAGC - KIAD

Flight Track Log - Related Links

Times and Time Zones

All times are in EDT time to prevent confusion due to time zone crossing. See the LBQ792 flight status page for this flight to view local times or setup timezone preferences in your user account.

Time Position Orientation Groundspeed Altitude Reporting Facility
EDT Latitude Longitude Course Direction KTS MPH feet Rate Location/Type
12:36AM 40.3133 -79.9161 129° Southeast 165 190 4,300  Level Cleveland Center
12:37AM 40.2797 -79.8619 129° Southeast 175 201 5,100 1,140 Climbing Cleveland Center
12:38AM 40.2481 -79.8025 125° Southeast 186 214 6,600 1,440 Climbing Cleveland Center
12:39AM 40.2164 -79.7431 125° Southeast 192 221 8,000 1,440 Climbing Cleveland Center
12:40AM 39.9774 -79.8879 173° South  Level FlightAware Approximate
12:40AM 40.1867 -79.6836 123° Southeast 192 221 9,500  Level Cleveland Center
12:41AM 40.1550 -79.6269 126° Southeast 192 221 10,900 1,260 Climbing Cleveland Center
12:42AM 40.1231 -79.5678 125° Southeast 192 221 12,100 1,200 Climbing Cleveland Center
12:43AM 40.0892 -79.5058 126° Southeast 197 227 13,400 1,380 Climbing Cleveland Center
12:44AM 40.0553 -79.4411 124° Southeast 197 227 14,900 840 Climbing Cleveland Center
12:45AM 40.0192 -79.3767 126° Southeast 207 238 15,100 60 Climbing Cleveland Center
12:46AM 39.9786 -79.2989 124° Southeast 235 270 15,100  Level Cleveland Center
12:47AM 39.9361 -79.2211 125° Southeast 251 289 15,100 -60 Level Cleveland Center
12:48AM 39.8933 -79.1408 125° Southeast 262 302 15,000  Descending Cleveland Center
12:49AM 39.8233 -79.0172 126° Southeast 263 303 15,100 -60 Climbing Washington Center
12:50AM 39.7717 -78.9256 126° Southeast 271 312 14,900 -360 Descending Washington Center
12:51AM 39.7261 -78.8425 125° Southeast 278 320 14,400 -720 Descending Washington Center
12:52AM 39.6806 -78.7569 125° Southeast 283 326 13,500 -840 Descending Washington Center
12:53AM 39.6367 -78.6769 125° Southeast 283 326 12,800 -720 Descending Washington Center
12:54AM 39.5889 -78.5942 127° Southeast 283 326 12,100 -840 Descending Washington Center
12:55AM 39.5428 -78.5114 126° Southeast 283 326 11,200 -900 Descending Washington Center
12:56AM 39.4989 -78.4317 125° Southeast 278 320 10,400 -660 Descending Washington Center
12:57AM 39.4531 -78.3492 126° Southeast 278 320 9,900 -300 Descending Washington Center
12:58AM 39.4108 -78.2778 127° Southeast 273 314 9,900 -480 Level Washington Center
12:59AM 39.3667 -78.1983 126° Southeast 273 314 9,000 -540 Descending Washington Center
01:00AM 39.3225 -78.1242 128° Southeast 268 308 8,900 -420 Descending Washington Center
01:01AM 39.2675 -78.0633 139° Southeast 262 302 8,200 -720 Descending Washington Center
01:02AM 39.2103 -77.9972 138° Southeast 268 308 7,500 -780 Descending Washington Center
01:03AM 39.1553 -77.9311 137° Southeast 268 308 6,700 -720 Descending Washington Center
01:04AM 39.1003 -77.8678 138° Southeast 268 308 6,100 -360 Descending Washington Center
01:05AM 39.0575 -77.8131 135° Southeast 260 299 6,000 -420 Descending Washington Center
01:06AM 38.9961 -77.7469 140° Southeast 255 293 5,300 -840 Descending Washington Center
01:07AM 38.9472 -77.6922 139° Southeast 260 299 4,400 -360 Descending Washington Center
01:10AM 38.9474 -77.5997 131° Southeast  Level Estimated
01:12AM 38.7500 -77.4667 90° East 216 249 3,400  Level Potomac TRACON
01:13AM 38.8000 -77.4333 27° Northeast 216 249 2,500 -900 Descending Potomac TRACON
01:14AM 38.8500 -77.4333 360° North 192 221 1,700 -840 Descending Potomac TRACON
01:15AM 38.9000 -77.4333 360° North 159 183 900 -840 Descending Potomac TRACON
01:17AM 38.9474 -77.4599 90° East  Level Estimated
01:17AM 38.9333 -77.4500 339° North  Level FlightAware Approximate
01:24AM 38.9474 -77.4599 339° North  Level Estimated
01:25AM 38.9474 -77.4599 339° North  Level Estimated
01:26AM 38.9474 -77.4599 339° North  Level Estimated